createdAt,value
2023-04-30T00:01:40.053Z,11.60
2023-04-30T00:04:07.788Z,11.50
2023-04-30T00:06:35.651Z,11.40
2023-04-30T00:09:03.918Z,11.28
2023-04-30T00:11:31.620Z,11.18
2023-04-30T00:13:59.029Z,11.06
2023-04-30T00:16:27.139Z,10.95
2023-04-30T00:18:54.733Z,10.81
2023-04-30T00:21:22.272Z,10.74
2023-04-30T00:23:49.511Z,10.68
2023-04-30T00:26:17.515Z,10.60
2023-04-30T00:28:45.033Z,10.53
2023-04-30T00:31:12.509Z,10.51
2023-04-30T00:33:40.333Z,10.46
2023-04-30T00:36:07.852Z,10.40
2023-04-30T00:38:35.278Z,10.34
2023-04-30T00:41:03.037Z,10.32
2023-04-30T00:43:31.040Z,10.27
2023-04-30T00:46:01.364Z,10.24
2023-04-30T00:48:29.048Z,10.21
2023-04-30T00:50:56.860Z,10.17
2023-04-30T00:53:24.631Z,10.05
2023-04-30T00:55:52.434Z,10.07
2023-04-30T00:58:20.244Z,10.08
2023-04-30T01:00:48.437Z,10.09
2023-04-30T01:03:16.536Z,10.09
2023-04-30T01:05:44.406Z,10.04
2023-04-30T01:08:12.018Z,10.01
2023-04-30T01:10:46.637Z,9.99
2023-04-30T01:13:19.758Z,9.99
2023-04-30T01:15:55.322Z,9.86
2023-04-30T01:18:29.402Z,9.80
2023-04-30T01:21:02.226Z,9.73
2023-04-30T01:23:34.356Z,9.68
2023-04-30T01:26:11.914Z,9.69
2023-04-30T01:28:40.643Z,9.69
2023-04-30T01:31:15.443Z,9.67
2023-04-30T01:33:43.159Z,9.71
2023-04-30T01:36:10.893Z,9.77
2023-04-30T01:38:54.368Z,9.86
2023-04-30T01:41:34.775Z,9.97
2023-04-30T01:44:10.371Z,10.07
2023-04-30T01:46:38.041Z,10.14
2023-04-30T01:49:21.375Z,10.23
2023-04-30T01:51:52.383Z,10.32
2023-04-30T01:54:27.554Z,10.40
2023-04-30T01:57:04.467Z,10.48
2023-04-30T01:59:34.083Z,10.56
2023-04-30T02:02:02.050Z,10.63
2023-04-30T02:04:29.565Z,10.66
2023-04-30T02:06:57.386Z,10.67
2023-04-30T02:09:25.386Z,10.72
2023-04-30T02:11:53.365Z,10.69
2023-04-30T02:14:21.117Z,10.66
2023-04-30T02:16:48.801Z,10.61
2023-04-30T02:19:16.926Z,10.57
2023-04-30T02:21:44.667Z,10.54
2023-04-30T02:24:12.392Z,10.51
2023-04-30T02:26:39.928Z,10.50
2023-04-30T02:29:07.570Z,10.49
2023-04-30T02:31:35.188Z,10.49
2023-04-30T02:34:02.933Z,10.51
2023-04-30T02:36:33.792Z,10.51
2023-04-30T02:39:01.400Z,10.53
2023-04-30T02:41:29.201Z,10.55
2023-04-30T02:43:56.938Z,10.56
2023-04-30T02:46:25.047Z,10.56
2023-04-30T02:48:52.942Z,10.55
2023-04-30T02:51:20.414Z,10.56
2023-04-30T02:53:48.583Z,10.56
2023-04-30T02:56:16.408Z,10.57
2023-04-30T02:58:44.042Z,10.53
2023-04-30T03:01:11.853Z,10.51
2023-04-30T03:03:39.614Z,10.54
2023-04-30T03:06:07.317Z,10.58
2023-04-30T03:08:35.195Z,10.60
2023-04-30T03:11:02.676Z,10.62
2023-04-30T03:13:30.113Z,10.63
2023-04-30T03:16:01.871Z,10.66
2023-04-30T03:18:29.813Z,10.71
2023-04-30T03:20:57.897Z,10.75
2023-04-30T03:23:28.179Z,10.77
2023-04-30T03:25:55.969Z,10.79
2023-04-30T03:28:23.602Z,10.80
2023-04-30T03:30:51.431Z,10.81
2023-04-30T03:33:19.186Z,10.84
2023-04-30T03:35:46.846Z,10.89
2023-04-30T03:38:14.440Z,10.91
2023-04-30T03:40:42.173Z,10.96
2023-04-30T03:43:09.814Z,10.98
2023-04-30T03:45:37.354Z,11.00
2023-04-30T03:48:05.289Z,11.04
2023-04-30T03:50:33.146Z,11.07
2023-04-30T03:53:00.987Z,11.12
2023-04-30T03:55:28.987Z,11.14
2023-04-30T03:57:56.840Z,11.16
2023-04-30T04:00:24.452Z,11.17
2023-04-30T04:02:52.292Z,11.20
2023-04-30T04:05:20.149Z,11.23
2023-04-30T04:07:47.870Z,11.26
2023-04-30T04:10:15.853Z,11.29
2023-04-30T04:12:43.852Z,11.28
2023-04-30T04:15:11.594Z,11.31
2023-04-30T04:17:39.399Z,11.36
2023-04-30T04:20:07.632Z,11.35
2023-04-30T04:22:35.260Z,11.31
2023-04-30T04:25:02.867Z,11.24
2023-04-30T04:27:30.473Z,11.35
2023-04-30T04:29:58.262Z,11.38
2023-04-30T04:32:26.423Z,11.38
2023-04-30T04:34:54.654Z,11.37
2023-04-30T04:37:22.314Z,11.34
2023-04-30T04:39:49.860Z,11.26
2023-04-30T04:42:18.471Z,11.24
2023-04-30T04:44:46.014Z,11.20
2023-04-30T04:47:13.815Z,11.17
2023-04-30T04:49:41.650Z,11.19
2023-04-30T04:52:09.403Z,11.17
2023-04-30T04:54:37.021Z,11.18
2023-04-30T04:57:04.486Z,11.18
2023-04-30T04:59:32.219Z,11.20
2023-04-30T05:01:59.898Z,11.21
2023-04-30T05:04:28.287Z,11.25
2023-04-30T05:06:55.869Z,11.30
2023-04-30T05:09:23.493Z,11.35
2023-04-30T05:11:51.486Z,11.41
2023-04-30T05:14:19.290Z,11.42
2023-04-30T05:16:47.309Z,11.43
2023-04-30T05:19:15.032Z,11.46
2023-04-30T05:21:42.644Z,11.50
2023-04-30T05:24:10.187Z,11.54
2023-04-30T05:26:38.299Z,11.55
2023-04-30T05:29:05.863Z,11.59
2023-04-30T05:31:33.483Z,11.67
2023-04-30T05:34:01.216Z,11.72
2023-04-30T05:36:29.670Z,11.77
2023-04-30T05:38:57.505Z,11.84
2023-04-30T05:41:25.308Z,11.85
2023-04-30T05:43:53.043Z,11.90
2023-04-30T05:46:20.939Z,11.98
2023-04-30T05:48:48.898Z,12.03
2023-04-30T05:51:16.885Z,12.19
2023-04-30T05:53:44.680Z,12.28
2023-04-30T05:56:12.773Z,12.38
2023-04-30T05:58:40.066Z,12.49
2023-04-30T06:01:10.341Z,12.59
2023-04-30T06:03:38.575Z,12.68
2023-04-30T06:06:06.836Z,12.82
2023-04-30T06:08:34.430Z,12.94
2023-04-30T06:11:04.217Z,13.06
2023-04-30T06:13:32.907Z,13.21
2023-04-30T06:16:00.941Z,13.47
2023-04-30T06:18:28.529Z,13.71
2023-04-30T06:20:56.543Z,13.94
2023-04-30T06:23:24.280Z,13.88
2023-04-30T06:25:52.100Z,13.86
2023-04-30T06:28:19.536Z,13.93
2023-04-30T06:30:47.540Z,13.96
2023-04-30T06:33:15.228Z,14.06
2023-04-30T06:35:42.908Z,14.19
2023-04-30T06:38:10.410Z,14.28
2023-04-30T06:40:38.245Z,14.38
2023-04-30T06:43:05.927Z,14.46
2023-04-30T06:45:33.724Z,14.57
2023-04-30T06:48:01.615Z,14.68
2023-04-30T06:50:29.547Z,14.80
2023-04-30T06:52:57.367Z,14.95
2023-04-30T06:55:25.243Z,15.07
2023-04-30T06:57:52.928Z,15.16
2023-04-30T07:00:20.618Z,15.29
2023-04-30T07:02:51.465Z,15.44
2023-04-30T07:05:19.386Z,15.59
2023-04-30T07:07:47.250Z,15.52
2023-04-30T07:10:15.065Z,15.75
2023-04-30T07:12:42.937Z,15.97
2023-04-30T07:15:10.848Z,16.11
2023-04-30T07:17:38.957Z,16.28
2023-04-30T07:20:07.059Z,16.41
2023-04-30T07:22:34.737Z,16.48
2023-04-30T07:25:02.655Z,16.58
2023-04-30T07:27:30.254Z,16.63
2023-04-30T07:29:58.099Z,16.58
2023-04-30T07:32:27.544Z,16.70
2023-04-30T07:34:54.944Z,16.76
2023-04-30T07:37:22.572Z,16.77
2023-04-30T07:39:50.114Z,16.89
2023-04-30T07:42:17.895Z,17.14
2023-04-30T07:44:46.571Z,17.35
2023-04-30T07:47:14.424Z,17.50
2023-04-30T07:49:42.406Z,17.76
2023-04-30T07:52:12.744Z,17.99
2023-04-30T07:54:40.673Z,18.13
2023-04-30T07:57:08.284Z,18.33
2023-04-30T07:59:36.115Z,18.39
2023-04-30T08:02:04.160Z,18.35
2023-04-30T08:04:32.032Z,18.59
2023-04-30T08:06:59.854Z,18.52
2023-04-30T08:09:27.592Z,18.72
2023-04-30T08:11:55.290Z,19.04
2023-04-30T08:14:22.900Z,19.19
2023-04-30T08:16:50.461Z,19.74
2023-04-30T08:19:18.434Z,20.45
2023-04-30T08:21:46.304Z,20.73
2023-04-30T08:24:14.141Z,20.94
2023-04-30T08:26:42.294Z,20.86
2023-04-30T08:29:10.297Z,21.17
2023-04-30T08:31:38.010Z,21.19
2023-04-30T08:34:05.550Z,21.12
2023-04-30T08:36:33.135Z,20.60
2023-04-30T08:39:02.333Z,20.46
2023-04-30T08:41:34.325Z,21.27
2023-04-30T08:44:02.981Z,21.96
2023-04-30T08:46:32.550Z,22.46
2023-04-30T08:49:00.622Z,22.68
2023-04-30T08:51:28.520Z,22.70
2023-04-30T08:53:57.981Z,22.32
2023-04-30T08:56:26.163Z,21.70
2023-04-30T08:58:53.997Z,21.15
2023-04-30T09:01:22.190Z,21.15
2023-04-30T09:03:50.078Z,21.69
2023-04-30T09:06:18.195Z,22.15
2023-04-30T09:08:48.194Z,22.61
2023-04-30T09:11:25.700Z,22.64
2023-04-30T09:13:58.321Z,22.14
2023-04-30T09:16:28.488Z,22.57
2023-04-30T09:18:57.160Z,22.97
2023-04-30T09:21:35.325Z,22.34
2023-04-30T09:24:04.916Z,21.87
2023-04-30T09:26:36.836Z,22.49
2023-04-30T09:29:08.394Z,22.06
2023-04-30T09:31:36.825Z,22.11
2023-04-30T09:34:04.909Z,22.83
2023-04-30T09:36:32.615Z,23.39
2023-04-30T09:39:10.272Z,23.73
2023-04-30T09:41:39.444Z,23.15
2023-04-30T09:44:06.909Z,22.63
2023-04-30T09:46:37.594Z,22.10
2023-04-30T09:49:06.199Z,22.49
2023-04-30T09:51:34.414Z,23.12
2023-04-30T09:54:03.734Z,23.27
2023-04-30T09:56:34.016Z,23.93
2023-04-30T09:59:02.657Z,23.95
2023-04-30T10:01:30.366Z,24.02
2023-04-30T10:03:58.544Z,24.26
2023-04-30T10:06:27.320Z,23.82
2023-04-30T10:08:57.961Z,23.59
2023-04-30T10:11:29.186Z,23.45
2023-04-30T10:14:11.527Z,23.15
2023-04-30T10:16:56.065Z,22.96
2023-04-30T10:21:53.041Z,22.66
2023-04-30T10:24:21.675Z,22.31
2023-04-30T10:26:50.202Z,22.09
2023-04-30T10:29:18.537Z,22.20
2023-04-30T10:31:48.624Z,22.25
2023-04-30T10:34:39.525Z,22.23
2023-04-30T10:37:18.952Z,22.31
2023-04-30T10:39:47.201Z,22.61
2023-04-30T10:42:14.679Z,22.15
2023-04-30T10:44:42.531Z,21.96
2023-04-30T10:47:10.544Z,21.65
2023-04-30T10:49:38.572Z,21.77
2023-04-30T10:52:06.538Z,21.83
2023-04-30T10:54:37.041Z,21.93
2023-04-30T10:57:13.045Z,21.95
2023-04-30T10:59:47.773Z,22.00
2023-04-30T11:02:18.688Z,22.01
2023-04-30T11:05:08.176Z,22.09
2023-04-30T11:07:36.554Z,22.15
2023-04-30T11:10:04.473Z,22.17
2023-04-30T11:12:31.791Z,22.05
2023-04-30T11:15:19.054Z,22.02
2023-04-30T11:17:48.635Z,22.01
2023-04-30T11:20:24.338Z,22.06
2023-04-30T11:23:17.423Z,22.14
2023-04-30T11:25:55.564Z,22.24
2023-04-30T11:28:27.061Z,22.62
2023-04-30T11:30:54.848Z,23.67
2023-04-30T11:33:23.477Z,26.00
2023-04-30T11:35:54.580Z,28.87
2023-04-30T11:38:29.712Z,30.48
2023-04-30T11:41:01.420Z,30.41
2023-04-30T11:43:32.804Z,31.58
2023-04-30T11:46:18.606Z,32.78
2023-04-30T11:48:47.441Z,33.80
2023-04-30T11:51:18.610Z,34.28
2023-04-30T11:53:47.498Z,35.32
2023-04-30T11:56:24.670Z,36.18
2023-04-30T11:58:53.595Z,36.38
2023-04-30T12:01:21.490Z,36.60
2023-04-30T12:03:51.603Z,37.39
2023-04-30T12:06:23.550Z,38.01
2023-04-30T12:08:54.351Z,38.02
2023-04-30T12:11:25.441Z,39.35
2023-04-30T12:13:54.104Z,38.40
2023-04-30T12:16:21.628Z,36.66
2023-04-30T12:18:52.453Z,34.55
2023-04-30T12:21:21.830Z,33.12
2023-04-30T12:23:49.610Z,35.28
2023-04-30T12:26:18.192Z,35.54
2023-04-30T12:28:48.747Z,35.86
2023-04-30T12:31:19.422Z,37.59
2023-04-30T12:33:55.519Z,38.34
2023-04-30T12:36:23.057Z,38.48
2023-04-30T12:38:50.742Z,39.46
2023-04-30T12:41:19.859Z,39.20
2023-04-30T12:43:49.546Z,39.58
2023-04-30T12:46:26.868Z,40.40
2023-04-30T12:48:55.105Z,40.54
2023-04-30T12:51:22.854Z,41.38
2023-04-30T12:53:50.536Z,41.76
2023-04-30T12:56:18.373Z,42.08
2023-04-30T12:58:49.938Z,42.83
2023-04-30T13:01:19.565Z,43.68
2023-04-30T13:03:47.199Z,43.01
2023-04-30T13:06:15.131Z,41.74
2023-04-30T13:08:57.202Z,38.14
2023-04-30T13:11:27.160Z,35.96
2023-04-30T13:13:58.124Z,33.90
2023-04-30T13:16:26.076Z,32.24
2023-04-30T13:18:54.098Z,31.04
2023-04-30T13:21:21.571Z,33.69
2023-04-30T13:23:53.749Z,36.51
2023-04-30T13:26:23.803Z,38.43
2023-04-30T13:28:51.707Z,39.57
2023-04-30T13:31:19.757Z,41.04
2023-04-30T13:33:47.273Z,42.09
2023-04-30T13:36:14.887Z,42.67
2023-04-30T13:38:43.517Z,43.34
2023-04-30T13:41:11.156Z,39.91
2023-04-30T13:43:41.542Z,36.87
2023-04-30T13:46:09.905Z,34.48
2023-04-30T13:48:37.788Z,32.34
2023-04-30T13:51:05.408Z,30.92
2023-04-30T13:53:33.099Z,30.01
2023-04-30T13:56:00.676Z,29.11
2023-04-30T13:58:28.572Z,28.15
2023-04-30T14:00:56.464Z,27.14
2023-04-30T14:03:24.268Z,26.63
2023-04-30T14:05:51.953Z,26.18
2023-04-30T14:08:21.214Z,25.54
2023-04-30T14:10:50.887Z,25.08
2023-04-30T14:13:18.585Z,24.95
2023-04-30T14:15:48.318Z,29.76
2023-04-30T14:18:15.591Z,33.18
2023-04-30T14:20:43.147Z,36.11
2023-04-30T14:23:10.671Z,35.23
2023-04-30T14:25:38.599Z,34.32
2023-04-30T14:28:06.069Z,32.98
2023-04-30T14:30:33.589Z,31.31
2023-04-30T14:33:01.518Z,29.79
2023-04-30T14:35:29.329Z,27.91
2023-04-30T14:37:56.684Z,27.26
2023-04-30T14:40:24.330Z,26.65
2023-04-30T14:42:51.603Z,26.30
2023-04-30T14:45:19.826Z,26.25
2023-04-30T14:47:47.374Z,26.21
2023-04-30T14:50:15.162Z,26.22
2023-04-30T14:52:42.649Z,25.75
2023-04-30T14:55:10.606Z,24.83
2023-04-30T14:57:38.349Z,24.42
2023-04-30T15:00:06.924Z,24.05
2023-04-30T15:02:34.664Z,23.79
2023-04-30T15:05:05.347Z,23.23
2023-04-30T15:07:32.845Z,22.26
2023-04-30T15:10:00.380Z,21.31
2023-04-30T15:12:27.839Z,20.85
2023-04-30T15:14:55.621Z,20.40
2023-04-30T15:17:23.186Z,20.17
2023-04-30T15:19:50.846Z,19.88
2023-04-30T15:22:18.848Z,19.69
2023-04-30T15:24:46.627Z,19.48
2023-04-30T15:27:14.185Z,19.32
2023-04-30T15:29:41.852Z,19.18
2023-04-30T15:32:09.358Z,19.06
2023-04-30T15:34:36.853Z,18.96
2023-04-30T15:37:04.638Z,18.60
2023-04-30T15:39:32.478Z,18.46
2023-04-30T15:42:00.645Z,18.16
2023-04-30T15:44:28.189Z,18.02
2023-04-30T15:46:56.120Z,17.95
2023-04-30T15:49:23.738Z,17.86
2023-04-30T15:51:52.035Z,17.82
2023-04-30T15:54:19.955Z,17.70
2023-04-30T15:56:48.199Z,17.68
2023-04-30T15:59:18.441Z,17.62
2023-04-30T16:01:47.278Z,17.61
2023-04-30T16:04:14.917Z,17.59
2023-04-30T16:06:43.018Z,17.51
2023-04-30T16:09:11.204Z,17.47
2023-04-30T16:11:40.215Z,17.46
2023-04-30T16:14:07.779Z,17.38
2023-04-30T16:16:35.688Z,17.36
2023-04-30T16:19:03.521Z,17.37
2023-04-30T16:21:34.587Z,17.35
2023-04-30T16:24:03.407Z,17.30
2023-04-30T16:26:31.211Z,17.26
2023-04-30T16:28:58.898Z,17.27
2023-04-30T16:31:26.723Z,17.21
2023-04-30T16:33:54.673Z,17.12
2023-04-30T16:36:22.398Z,17.02
2023-04-30T16:38:50.215Z,16.86
2023-04-30T16:41:17.983Z,16.67
2023-04-30T16:43:46.217Z,16.68
2023-04-30T16:46:13.837Z,16.50
2023-04-30T16:48:41.527Z,16.32
2023-04-30T16:51:09.899Z,16.23
2023-04-30T16:53:37.682Z,16.16
2023-04-30T16:56:05.534Z,16.06
2023-04-30T16:58:33.121Z,16.09
2023-04-30T17:01:01.283Z,16.09
2023-04-30T17:03:30.910Z,16.05
2023-04-30T17:05:58.723Z,16.06
2023-04-30T17:08:26.823Z,16.05
2023-04-30T17:10:54.696Z,16.01
2023-04-30T17:13:22.590Z,15.99
2023-04-30T17:15:50.011Z,15.90
2023-04-30T17:18:17.840Z,15.80
2023-04-30T17:20:46.827Z,15.71
2023-04-30T17:23:14.118Z,15.60
2023-04-30T17:25:43.242Z,15.51
2023-04-30T17:28:11.238Z,15.34
2023-04-30T17:30:39.242Z,15.19
2023-04-30T17:33:07.208Z,15.06
2023-04-30T17:35:34.846Z,14.96
2023-04-30T17:38:02.425Z,14.87
2023-04-30T17:40:31.841Z,14.74
2023-04-30T17:42:59.629Z,14.65
2023-04-30T17:45:27.529Z,14.52
2023-04-30T17:47:55.333Z,14.45
2023-04-30T17:50:23.093Z,14.36
2023-04-30T17:52:50.727Z,14.26
2023-04-30T17:55:18.080Z,14.20
2023-04-30T17:57:45.857Z,14.16
2023-04-30T18:00:14.440Z,14.07
2023-04-30T18:02:42.184Z,13.97
2023-04-30T18:05:11.961Z,13.91
2023-04-30T18:07:39.580Z,13.87
2023-04-30T18:10:07.883Z,13.87
2023-04-30T18:12:36.885Z,13.87
2023-04-30T18:15:06.074Z,13.86
2023-04-30T18:17:35.729Z,13.79
2023-04-30T18:20:05.110Z,13.83
2023-04-30T18:22:32.593Z,13.79
2023-04-30T18:25:00.279Z,13.79
2023-04-30T18:27:28.006Z,13.73
2023-04-30T18:29:57.251Z,13.66
2023-04-30T18:32:25.056Z,13.66
2023-04-30T18:34:52.893Z,13.65
2023-04-30T18:37:21.903Z,13.59
2023-04-30T18:39:51.889Z,13.58
2023-04-30T18:42:19.755Z,13.48
2023-04-30T18:44:47.891Z,13.48
2023-04-30T18:47:15.280Z,13.47
2023-04-30T18:49:44.284Z,13.41
2023-04-30T18:52:11.892Z,13.43
2023-04-30T18:54:39.610Z,13.42
2023-04-30T18:57:08.286Z,13.38
2023-04-30T18:59:35.897Z,13.28
2023-04-30T19:02:03.808Z,13.09
2023-04-30T19:04:31.781Z,13.03
2023-04-30T19:06:59.291Z,12.99
2023-04-30T19:09:27.022Z,12.91
2023-04-30T19:11:54.907Z,12.77
2023-04-30T19:14:22.478Z,12.58
2023-04-30T19:16:49.905Z,12.39
2023-04-30T19:19:17.924Z,12.30
2023-04-30T19:21:45.916Z,12.28
2023-04-30T19:24:13.300Z,12.17
2023-04-30T19:26:42.928Z,12.10
2023-04-30T19:29:10.735Z,11.98
2023-04-30T19:31:38.452Z,11.83
2023-04-30T19:34:05.817Z,11.73
2023-04-30T19:36:33.313Z,11.63
2023-04-30T19:39:01.005Z,11.62
2023-04-30T19:41:29.310Z,11.51
2023-04-30T19:43:57.150Z,11.50
2023-04-30T19:46:24.985Z,11.46
2023-04-30T19:48:52.937Z,11.41
2023-04-30T19:51:20.645Z,11.32
2023-04-30T19:53:48.229Z,11.22
2023-04-30T19:56:15.911Z,11.06
2023-04-30T19:58:44.320Z,11.03
2023-04-30T20:01:12.977Z,11.07
2023-04-30T20:03:42.666Z,11.07
2023-04-30T20:06:10.910Z,11.05
2023-04-30T20:08:38.951Z,10.99
2023-04-30T20:11:06.329Z,10.96
2023-04-30T20:13:34.067Z,10.91
2023-04-30T20:16:01.982Z,10.88
2023-04-30T20:18:29.962Z,10.85
2023-04-30T20:20:58.673Z,10.82
2023-04-30T20:23:26.266Z,10.78
2023-04-30T20:25:55.365Z,10.75
2023-04-30T20:28:22.988Z,10.72
2023-04-30T20:30:50.335Z,10.50
2023-04-30T20:33:19.177Z,10.39
2023-04-30T20:35:47.741Z,10.41
2023-04-30T20:38:19.568Z,10.38
2023-04-30T20:40:47.992Z,10.35
2023-04-30T20:43:16.973Z,10.29
2023-04-30T20:45:45.360Z,10.23
2023-04-30T20:48:13.068Z,10.16
2023-04-30T20:50:41.699Z,10.08
2023-04-30T20:53:11.155Z,10.09
2023-04-30T20:55:39.186Z,10.07
2023-04-30T20:58:08.849Z,10.05
2023-04-30T21:00:37.005Z,10.06
2023-04-30T21:03:04.915Z,9.98
2023-04-30T21:05:32.790Z,9.97
2023-04-30T21:08:01.842Z,9.96
2023-04-30T21:10:37.028Z,9.94
2023-04-30T21:13:05.698Z,9.77
2023-04-30T21:15:35.787Z,9.78
2023-04-30T21:18:03.868Z,9.82
2023-04-30T21:20:32.331Z,9.84
2023-04-30T21:23:00.234Z,9.84
2023-04-30T21:25:28.346Z,9.80
2023-04-30T21:27:56.370Z,9.78
2023-04-30T21:30:27.015Z,9.78
2023-04-30T21:32:58.862Z,9.85
2023-04-30T21:35:30.023Z,9.77
2023-04-30T21:37:58.036Z,9.72
2023-04-30T21:40:26.029Z,9.73
2023-04-30T21:42:54.028Z,9.74
2023-04-30T21:45:22.030Z,9.72
2023-04-30T21:47:49.851Z,9.66
2023-04-30T21:50:18.034Z,9.67
2023-04-30T21:52:46.035Z,9.58
2023-04-30T21:55:14.048Z,9.58
2023-04-30T21:57:42.034Z,9.60
2023-04-30T22:00:17.410Z,9.60
2023-04-30T22:02:45.121Z,9.59
2023-04-30T22:05:14.347Z,9.57
2023-04-30T22:07:42.357Z,9.49
2023-04-30T22:10:11.044Z,9.48
2023-04-30T22:12:39.043Z,9.47
2023-04-30T22:15:07.837Z,9.45
2023-04-30T22:17:35.411Z,9.42
2023-04-30T22:20:03.291Z,9.37
2023-04-30T22:22:31.048Z,9.38
2023-04-30T22:24:59.049Z,9.36
2023-04-30T22:27:27.048Z,9.33
2023-04-30T22:29:55.221Z,9.31
2023-04-30T22:32:22.968Z,9.28
2023-04-30T22:34:51.074Z,9.26
2023-04-30T22:37:18.904Z,9.21
2023-04-30T22:39:47.017Z,9.14
2023-04-30T22:42:14.719Z,9.13
2023-04-30T22:44:42.588Z,9.13
2023-04-30T22:47:10.313Z,9.09
2023-04-30T22:49:39.188Z,9.01
2023-04-30T22:52:07.252Z,8.95
2023-04-30T22:54:35.279Z,8.98
2023-04-30T22:57:03.421Z,8.94
2023-04-30T22:59:31.407Z,8.80
2023-04-30T23:01:59.868Z,8.80
2023-04-30T23:04:28.492Z,8.81
2023-04-30T23:06:57.060Z,8.84
2023-04-30T23:09:25.082Z,8.81
2023-04-30T23:11:53.442Z,8.79
2023-04-30T23:14:21.413Z,8.79
2023-04-30T23:16:49.124Z,8.80
2023-04-30T23:19:17.199Z,8.72
2023-04-30T23:21:44.888Z,8.60
2023-04-30T23:24:12.407Z,8.62
2023-04-30T23:26:40.435Z,8.57
2023-04-30T23:29:08.203Z,8.52
2023-04-30T23:31:36.109Z,8.50
2023-04-30T23:34:03.647Z,8.42
2023-04-30T23:36:31.434Z,8.40
2023-04-30T23:38:59.428Z,8.37
2023-04-30T23:41:27.431Z,8.32
2023-04-30T23:43:55.431Z,8.31
2023-04-30T23:46:23.455Z,8.31
2023-04-30T23:48:51.145Z,8.24
2023-04-30T23:51:19.280Z,8.22
2023-04-30T23:53:47.218Z,8.16
2023-04-30T23:56:17.408Z,8.05
2023-04-30T23:58:45.445Z,7.94
